Time,TemperatureF,DewpointF,PressureIn,WindDirection,WindDirectionDegrees,WindSpeedMPH,WindSpeedGustMPH,Humidity,HourlyPrecipIn,Conditions,Clouds,dailyrainin,SoftwareType,DateUTC
2013-11-14 07:11:00,29.1,24.0,30.16,South,169,5.0,5.0,81,0.00,,,0.00,Wunderground v.1.15,2013-11-14 13:11:00,
2013-11-14 07:16:00,29.3,23.9,30.16,SSW,192,5.0,5.0,80,0.00,,,0.00,Wunderground v.1.15,2013-11-14 13:16:00,
2013-11-14 07:21:00,29.6,24.2,30.16,South,186,6.0,6.0,80,0.00,,,0.00,Wunderground v.1.15,2013-11-14 13:21:00,
2013-11-14 07:26:00,29.8,24.4,30.16,SSW,213,5.0,6.0,80,0.00,,,0.00,Wunderground v.1.15,2013-11-14 13:26:00,
2013-11-14 07:31:00,30.1,24.4,30.16,South,178,5.0,8.0,79,0.00,,,0.00,Wunderground v.1.15,2013-11-14 13:31:00,
2013-11-14 07:41:00,30.7,24.7,30.15,WSW,252,6.0,6.0,78,0.00,,,0.00,Wunderground v.1.15,2013-11-14 13:41:00,
2013-11-14 07:46:00,31.0,24.9,30.15,SW,220,7.0,9.0,78,0.00,,,0.00,Wunderground v.1.15,2013-11-14 13:46:00,
2013-11-14 07:56:00,31.6,25.2,30.15,SW,232,7.0,8.0,77,0.00,,,0.00,Wunderground v.1.15,2013-11-14 13:56:00,
2013-11-14 08:06:00,32.3,25.9,30.16,South,184,6.0,7.0,77,0.00,,,0.00,Wunderground v.1.15,2013-11-14 14:06:00,
2013-11-14 08:16:00,33.3,26.2,30.16,SSW,202,6.0,8.0,75,0.00,,,0.00,Wunderground v.1.15,2013-11-14 14:16:00,
2013-11-14 08:26:00,34.3,26.2,30.16,South,178,8.0,8.0,72,0.00,,,0.00,Wunderground v.1.15,2013-11-14 14:26:00,
2013-11-14 08:36:00,35.3,27.2,30.16,SW,223,7.0,7.0,72,0.00,,,0.00,Wunderground v.1.15,2013-11-14 14:36:00,
2013-11-14 08:41:00,35.7,27.2,30.16,SW,226,7.0,7.0,71,0.00,,,0.00,Wunderground v.1.15,2013-11-14 14:41:00,
2013-11-14 08:51:00,36.7,27.1,30.16,SSW,202,8.0,9.0,68,0.00,,,0.00,Wunderground v.1.15,2013-11-14 14:51:00,
2013-11-14 09:01:00,38.0,26.9,30.16,SW,229,9.0,9.0,64,0.00,,,0.00,Wunderground v.1.15,2013-11-14 15:01:00,
2013-11-14 09:11:00,38.5,27.7,30.15,SW,226,9.0,13.0,65,0.00,,,0.00,Wunderground v.1.15,2013-11-14 15:11:00,
2013-11-14 09:21:00,38.9,27.4,30.15,SW,227,10.0,10.0,63,0.00,,,0.00,Wunderground v.1.15,2013-11-14 15:21:00,
2013-11-14 09:31:00,39.2,27.3,30.14,SW,232,9.0,9.0,62,0.00,,,0.00,Wunderground v.1.15,2013-11-14 15:31:00,
2013-11-14 09:36:00,39.3,27.0,30.14,SSW,204,9.0,10.0,61,0.00,,,0.00,Wunderground v.1.15,2013-11-14 15:36:00,
2013-11-14 09:46:00,39.7,27.7,30.14,SW,219,11.0,15.0,62,0.00,,,0.00,Wunderground v.1.15,2013-11-14 15:46:00,
2013-11-14 09:56:00,40.3,28.3,30.14,SSW,198,9.0,11.0,62,0.00,,,0.00,Wunderground v.1.15,2013-11-14 15:56:00,
2013-11-14 10:01:00,40.5,27.7,30.14,SW,234,10.0,17.0,60,0.00,,,0.00,Wunderground v.1.15,2013-11-14 16:01:00,
2013-11-14 10:11:00,41.2,28.4,30.13,SW,230,10.0,10.0,60,0.00,,,0.00,Wunderground v.1.15,2013-11-14 16:11:00,
2013-11-14 10:16:00,41.7,28.4,30.13,SW,215,9.0,11.0,59,0.00,,,0.00,Wunderground v.1.15,2013-11-14 16:16:00,
2013-11-14 10:26:00,42.2,28.9,30.13,SW,216,9.0,13.0,59,0.00,,,0.00,Wunderground v.1.15,2013-11-14 16:26:00,
2013-11-14 10:36:00,42.5,27.5,30.12,SW,224,10.0,11.0,55,0.00,,,0.00,Wunderground v.1.15,2013-11-14 16:36:00,
2013-11-14 10:46:00,43.0,27.9,30.12,SW,235,10.0,11.0,55,0.00,,,0.00,Wunderground v.1.15,2013-11-14 16:46:00,
2013-11-14 10:56:00,43.1,28.0,30.11,SW,224,11.0,16.0,55,0.00,,,0.00,Wunderground v.1.15,2013-11-14 16:56:00,
2013-11-14 11:06:00,43.7,29.5,30.10,SW,221,10.0,18.0,57,0.00,,,0.00,Wunderground v.1.15,2013-11-14 17:06:00,
2013-11-14 11:16:00,44.3,29.1,30.10,WSW,237,10.0,11.0,55,0.00,,,0.00,Wunderground v.1.15,2013-11-14 17:16:00,
2013-11-14 11:26:00,44.7,29.5,30.09,SSW,200,11.0,15.0,55,0.00,,,0.00,Wunderground v.1.15,2013-11-14 17:26:00,
2013-11-14 11:31:00,44.9,29.7,30.08,SSW,197,12.0,12.0,55,0.00,,,0.00,Wunderground v.1.15,2013-11-14 17:31:00,
2013-11-14 11:41:00,45.5,30.3,30.08,SSW,211,10.0,10.0,55,0.00,,,0.00,Wunderground v.1.15,2013-11-14 17:41:00,
2013-11-14 11:51:00,45.9,30.6,30.08,SW,215,11.0,13.0,55,0.00,,,0.00,Wunderground v.1.15,2013-11-14 17:51:00,
2013-11-14 12:01:00,46.3,30.5,30.06,SW,218,11.0,11.0,54,0.00,,,0.00,Wunderground v.1.15,2013-11-14 18:01:00,
2013-11-14 12:11:00,46.7,31.4,30.06,SSW,208,11.0,13.0,55,0.00,,,0.00,Wunderground v.1.15,2013-11-14 18:11:00,
2013-11-14 12:21:00,47.0,31.2,30.06,SW,221,11.0,12.0,54,0.00,,,0.00,Wunderground v.1.15,2013-11-14 18:21:00,
2013-11-14 12:26:00,47.0,30.7,30.06,SSW,202,11.0,13.0,53,0.00,,,0.00,Wunderground v.1.15,2013-11-14 18:26:00,
2013-11-14 12:36:00,47.7,30.9,30.05,SW,221,12.0,12.0,52,0.00,,,0.00,Wunderground v.1.15,2013-11-14 18:36:00,
2013-11-14 12:46:00,48.3,31.0,30.04,SW,229,13.0,13.0,51,0.00,,,0.00,Wunderground v.1.15,2013-11-14 18:46:00,
2013-11-14 12:56:00,48.6,31.8,30.04,SW,231,12.0,13.0,52,0.00,,,0.00,Wunderground v.1.15,2013-11-14 18:56:00,
2013-11-14 13:01:00,48.7,31.8,30.04,SW,229,12.0,12.0,52,0.00,,,0.00,Wunderground v.1.15,2013-11-14 19:01:00,
2013-11-14 13:11:00,48.8,31.9,30.03,SSW,203,12.0,12.0,52,0.00,,,0.00,Wunderground v.1.15,2013-11-14 19:11:00,
2013-11-14 13:16:00,48.8,31.0,30.03,SSW,213,12.0,17.0,50,0.00,,,0.00,Wunderground v.1.15,2013-11-14 19:16:00,
2013-11-14 13:26:00,49.2,29.8,30.03,SW,223,12.0,12.0,47,0.00,,,0.00,Wunderground v.1.15,2013-11-14 19:26:00,
2013-11-14 13:36:00,50.0,32.1,30.03,WSW,242,12.0,12.0,50,0.00,,,0.00,Wunderground v.1.15,2013-11-14 19:36:00,
2013-11-14 13:41:00,50.2,33.2,30.02,SW,215,11.0,11.0,52,0.00,,,0.00,Wunderground v.1.15,2013-11-14 19:41:00,
2013-11-14 13:51:00,50.3,30.8,30.02,SSW,208,12.0,12.0,47,0.00,,,0.00,Wunderground v.1.15,2013-11-14 19:51:00,
2013-11-14 14:01:00,50.3,31.3,30.02,South,169,13.0,13.0,48,0.00,,,0.00,Wunderground v.1.15,2013-11-14 20:01:00,
2013-11-14 14:11:00,50.4,31.4,30.01,SSW,194,12.0,12.0,48,0.00,,,0.00,Wunderground v.1.15,2013-11-14 20:11:00,
2013-11-14 14:21:00,50.1,31.7,30.01,SW,222,11.0,11.0,49,0.00,,,0.00,Wunderground v.1.15,2013-11-14 20:21:00,
2013-11-14 14:31:00,49.7,30.8,30.01,SSW,201,11.0,11.0,48,0.00,,,0.00,Wunderground v.1.15,2013-11-14 20:31:00,
2013-11-14 14:36:00,49.4,30.5,30.01,SW,217,12.0,15.0,48,0.00,,,0.00,Wunderground v.1.15,2013-11-14 20:36:00,
2013-11-14 14:46:00,49.8,31.9,30.00,SSW,209,9.0,11.0,50,0.00,,,0.00,Wunderground v.1.15,2013-11-14 20:46:00,
2013-11-14 14:56:00,49.6,32.2,30.00,SSW,199,9.0,10.0,51,0.00,,,0.00,Wunderground v.1.15,2013-11-14 20:56:00,
2013-11-14 15:06:00,49.5,31.6,30.00,South,186,10.0,10.0,50,0.00,,,0.00,Wunderground v.1.15,2013-11-14 21:06:00,
2013-11-14 15:16:00,49.3,32.4,30.00,SSW,206,8.0,9.0,52,0.00,,,0.00,Wunderground v.1.15,2013-11-14 21:16:00,
2013-11-14 15:26:00,48.9,32.5,30.00,SW,216,7.0,7.0,53,0.00,,,0.00,Wunderground v.1.15,2013-11-14 21:26:00,
2013-11-14 15:31:00,48.9,32.0,30.00,SW,224,7.0,7.0,52,0.00,,,0.00,Wunderground v.1.15,2013-11-14 21:31:00,
2013-11-14 15:41:00,48.9,31.1,30.01,SW,225,8.0,8.0,50,0.00,,,0.00,Wunderground v.1.15,2013-11-14 21:41:00,
2013-11-14 15:51:00,48.2,31.9,30.01,SW,229,6.0,10.0,53,0.00,,,0.00,Wunderground v.1.15,2013-11-14 21:51:00,
2013-11-14 16:01:00,47.4,32.5,30.01,SSW,204,6.0,6.0,56,0.00,,,0.00,Wunderground v.1.15,2013-11-14 22:01:00,
2013-11-14 16:06:00,46.8,32.4,30.01,SW,218,5.0,6.0,57,0.00,,,0.00,Wunderground v.1.15,2013-11-14 22:06:00,
2013-11-14 16:16:00,45.8,32.7,30.01,SSW,207,4.0,4.0,60,0.00,,,0.00,Wunderground v.1.15,2013-11-14 22:16:00,
2013-11-14 16:26:00,44.8,33.0,30.01,SSW,202,3.0,5.0,63,0.00,,,0.00,Wunderground v.1.15,2013-11-14 22:26:00,
2013-11-14 16:36:00,44.3,32.5,30.01,South,182,4.0,4.0,63,0.00,,,0.00,Wunderground v.1.15,2013-11-14 22:36:00,